sensor_id;sensor_type;location;lat;lon;timestamp;temperature;humidity
18177;DHT22;9213;50.858;3.964;2023-05-27T00:02:03;17.00;41.60
18177;DHT22;9213;50.858;3.964;2023-05-27T00:04:31;17.00;41.70
18177;DHT22;9213;50.858;3.964;2023-05-27T00:06:58;17.00;41.90
18177;DHT22;9213;50.858;3.964;2023-05-27T00:09:25;16.90;42.00
18177;DHT22;9213;50.858;3.964;2023-05-27T00:11:52;16.90;42.00
18177;DHT22;9213;50.858;3.964;2023-05-27T00:14:19;16.90;42.10
18177;DHT22;9213;50.858;3.964;2023-05-27T00:16:47;16.80;42.10
18177;DHT22;9213;50.858;3.964;2023-05-27T00:19:15;16.80;42.20
18177;DHT22;9213;50.858;3.964;2023-05-27T00:21:45;16.70;42.40
18177;DHT22;9213;50.858;3.964;2023-05-27T00:24:11;16.70;42.50
18177;DHT22;9213;50.858;3.964;2023-05-27T00:26:38;16.70;42.60
18177;DHT22;9213;50.858;3.964;2023-05-27T00:29:05;16.60;42.50
18177;DHT22;9213;50.858;3.964;2023-05-27T00:31:32;16.60;42.60
18177;DHT22;9213;50.858;3.964;2023-05-27T00:33:59;16.60;42.70
18177;DHT22;9213;50.858;3.964;2023-05-27T00:36:26;16.50;42.80
18177;DHT22;9213;50.858;3.964;2023-05-27T00:38:54;16.50;43.00
18177;DHT22;9213;50.858;3.964;2023-05-27T00:41:22;16.50;43.20
18177;DHT22;9213;50.858;3.964;2023-05-27T00:43:49;16.40;43.20
18177;DHT22;9213;50.858;3.964;2023-05-27T00:46:16;16.40;43.30
18177;DHT22;9213;50.858;3.964;2023-05-27T00:48:42;16.30;43.30
18177;DHT22;9213;50.858;3.964;2023-05-27T00:51:09;16.40;43.40
18177;DHT22;9213;50.858;3.964;2023-05-27T00:53:39;16.30;43.40
18177;DHT22;9213;50.858;3.964;2023-05-27T00:56:09;16.30;43.70
18177;DHT22;9213;50.858;3.964;2023-05-27T00:58:36;16.20;43.70
18177;DHT22;9213;50.858;3.964;2023-05-27T01:01:04;16.20;43.80
18177;DHT22;9213;50.858;3.964;2023-05-27T01:03:32;16.10;43.90
18177;DHT22;9213;50.858;3.964;2023-05-27T01:06:05;16.10;44.00
18177;DHT22;9213;50.858;3.964;2023-05-27T01:08:39;16.10;44.20
18177;DHT22;9213;50.858;3.964;2023-05-27T01:11:12;16.00;44.10
18177;DHT22;9213;50.858;3.964;2023-05-27T01:13:43;16.00;44.30
18177;DHT22;9213;50.858;3.964;2023-05-27T01:16:13;15.90;44.40
18177;DHT22;9213;50.858;3.964;2023-05-27T01:18:42;15.90;44.50
18177;DHT22;9213;50.858;3.964;2023-05-27T01:21:13;15.90;45.30
18177;DHT22;9213;50.858;3.964;2023-05-27T01:23:45;15.80;44.60
18177;DHT22;9213;50.858;3.964;2023-05-27T01:26:13;15.80;44.60
18177;DHT22;9213;50.858;3.964;2023-05-27T01:28:40;15.80;44.70
18177;DHT22;9213;50.858;3.964;2023-05-27T01:31:12;15.70;44.70
18177;DHT22;9213;50.858;3.964;2023-05-27T01:33:42;15.70;45.00
18177;DHT22;9213;50.858;3.964;2023-05-27T01:36:15;15.70;45.00
18177;DHT22;9213;50.858;3.964;2023-05-27T01:38:46;15.70;45.20
18177;DHT22;9213;50.858;3.964;2023-05-27T01:41:14;15.60;45.20
18177;DHT22;9213;50.858;3.964;2023-05-27T01:43:43;15.60;45.20
18177;DHT22;9213;50.858;3.964;2023-05-27T01:46:10;15.50;45.40
18177;DHT22;9213;50.858;3.964;2023-05-27T01:48:37;15.50;45.30
18177;DHT22;9213;50.858;3.964;2023-05-27T01:51:04;15.50;45.40
18177;DHT22;9213;50.858;3.964;2023-05-27T01:53:31;15.40;45.40
18177;DHT22;9213;50.858;3.964;2023-05-27T01:55:59;15.40;45.60
18177;DHT22;9213;50.858;3.964;2023-05-27T01:58:27;15.40;45.80
18177;DHT22;9213;50.858;3.964;2023-05-27T02:00:54;15.30;45.80
18177;DHT22;9213;50.858;3.964;2023-05-27T02:03:21;15.30;45.90
18177;DHT22;9213;50.858;3.964;2023-05-27T02:05:48;15.20;45.90
18177;DHT22;9213;50.858;3.964;2023-05-27T02:08:15;15.20;45.90
18177;DHT22;9213;50.858;3.964;2023-05-27T02:10:41;15.20;46.00
18177;DHT22;9213;50.858;3.964;2023-05-27T02:13:10;15.20;46.10
18177;DHT22;9213;50.858;3.964;2023-05-27T02:15:37;15.10;46.30
18177;DHT22;9213;50.858;3.964;2023-05-27T02:18:04;15.10;46.30
18177;DHT22;9213;50.858;3.964;2023-05-27T02:20:31;15.10;46.50
18177;DHT22;9213;50.858;3.964;2023-05-27T02:23:00;15.00;46.50
18177;DHT22;9213;50.858;3.964;2023-05-27T02:25:27;15.00;46.60
18177;DHT22;9213;50.858;3.964;2023-05-27T02:27:54;15.00;46.80
18177;DHT22;9213;50.858;3.964;2023-05-27T02:30:23;14.90;46.80
18177;DHT22;9213;50.858;3.964;2023-05-27T02:32:50;14.90;46.90
18177;DHT22;9213;50.858;3.964;2023-05-27T02:35:17;14.90;46.80
18177;DHT22;9213;50.858;3.964;2023-05-27T02:37:43;14.90;46.90
18177;DHT22;9213;50.858;3.964;2023-05-27T02:40:11;14.80;46.90
18177;DHT22;9213;50.858;3.964;2023-05-27T02:42:38;14.80;47.10
18177;DHT22;9213;50.858;3.964;2023-05-27T02:45:05;14.70;47.80
18177;DHT22;9213;50.858;3.964;2023-05-27T02:47:34;14.70;47.20
18177;DHT22;9213;50.858;3.964;2023-05-27T02:50:01;14.70;47.40
18177;DHT22;9213;50.858;3.964;2023-05-27T02:52:28;14.70;47.50
18177;DHT22;9213;50.858;3.964;2023-05-27T02:54:55;14.60;47.50
18177;DHT22;9213;50.858;3.964;2023-05-27T02:57:22;14.60;47.50
18177;DHT22;9213;50.858;3.964;2023-05-27T02:59:48;14.60;47.70
18177;DHT22;9213;50.858;3.964;2023-05-27T03:02:15;14.50;47.70
18177;DHT22;9213;50.858;3.964;2023-05-27T03:04:44;14.50;47.70
18177;DHT22;9213;50.858;3.964;2023-05-27T03:07:11;14.50;48.00
18177;DHT22;9213;50.858;3.964;2023-05-27T03:09:38;14.40;47.90
18177;DHT22;9213;50.858;3.964;2023-05-27T03:12:05;14.40;48.00
18177;DHT22;9213;50.858;3.964;2023-05-27T03:14:32;14.40;48.10
18177;DHT22;9213;50.858;3.964;2023-05-27T03:16:59;14.30;48.20
18177;DHT22;9213;50.858;3.964;2023-05-27T03:19:26;14.30;48.20
18177;DHT22;9213;50.858;3.964;2023-05-27T03:21:54;14.30;48.30
18177;DHT22;9213;50.858;3.964;2023-05-27T03:24:22;14.30;48.50
18177;DHT22;9213;50.858;3.964;2023-05-27T03:26:49;14.30;48.40
18177;DHT22;9213;50.858;3.964;2023-05-27T03:29:17;14.20;48.30
18177;DHT22;9213;50.858;3.964;2023-05-27T03:31:43;14.20;48.50
18177;DHT22;9213;50.858;3.964;2023-05-27T03:34:10;14.20;48.60
18177;DHT22;9213;50.858;3.964;2023-05-27T03:36:38;14.10;48.60
18177;DHT22;9213;50.858;3.964;2023-05-27T03:39:06;14.10;48.80
18177;DHT22;9213;50.858;3.964;2023-05-27T03:41:33;14.10;48.80
18177;DHT22;9213;50.858;3.964;2023-05-27T03:44:00;14.10;48.80
18177;DHT22;9213;50.858;3.964;2023-05-27T03:46:27;14.00;48.80
18177;DHT22;9213;50.858;3.964;2023-05-27T03:48:54;14.00;48.90
18177;DHT22;9213;50.858;3.964;2023-05-27T03:51:21;14.00;48.90
18177;DHT22;9213;50.858;3.964;2023-05-27T03:53:48;14.00;48.80
18177;DHT22;9213;50.858;3.964;2023-05-27T03:56:17;14.00;49.00
18177;DHT22;9213;50.858;3.964;2023-05-27T03:58:43;14.00;49.00
18177;DHT22;9213;50.858;3.964;2023-05-27T04:01:11;14.00;49.00
18177;DHT22;9213;50.858;3.964;2023-05-27T04:03:38;13.90;49.20
18177;DHT22;9213;50.858;3.964;2023-05-27T04:06:06;14.00;49.20
18177;DHT22;9213;50.858;3.964;2023-05-27T04:08:33;14.00;49.30
18177;DHT22;9213;50.858;3.964;2023-05-27T04:11:01;14.00;49.10
18177;DHT22;9213;50.858;3.964;2023-05-27T04:13:29;14.00;49.20
18177;DHT22;9213;50.858;3.964;2023-05-27T04:15:56;14.00;49.20
18177;DHT22;9213;50.858;3.964;2023-05-27T04:18:24;14.00;49.10
18177;DHT22;9213;50.858;3.964;2023-05-27T04:20:51;14.00;49.20
18177;DHT22;9213;50.858;3.964;2023-05-27T04:23:18;14.00;49.20
18177;DHT22;9213;50.858;3.964;2023-05-27T04:25:45;14.00;49.20
18177;DHT22;9213;50.858;3.964;2023-05-27T04:28:14;14.10;49.20
18177;DHT22;9213;50.858;3.964;2023-05-27T04:30:43;14.10;49.20
18177;DHT22;9213;50.858;3.964;2023-05-27T04:33:14;14.10;49.20
18177;DHT22;9213;50.858;3.964;2023-05-27T04:35:41;14.10;49.20
18177;DHT22;9213;50.858;3.964;2023-05-27T04:38:09;14.10;49.30
18177;DHT22;9213;50.858;3.964;2023-05-27T04:40:36;14.20;49.20
18177;DHT22;9213;50.858;3.964;2023-05-27T04:43:03;14.20;49.10
18177;DHT22;9213;50.858;3.964;2023-05-27T04:45:30;14.20;49.20
18177;DHT22;9213;50.858;3.964;2023-05-27T04:47:59;14.20;49.00
18177;DHT22;9213;50.858;3.964;2023-05-27T04:50:26;14.30;49.00
18177;DHT22;9213;50.858;3.964;2023-05-27T04:52:53;14.30;48.90
18177;DHT22;9213;50.858;3.964;2023-05-27T04:55:20;14.30;48.90
18177;DHT22;9213;50.858;3.964;2023-05-27T04:57:47;14.40;48.70
18177;DHT22;9213;50.858;3.964;2023-05-27T05:00:14;14.40;48.60
18177;DHT22;9213;50.858;3.964;2023-05-27T05:02:48;14.40;48.70
18177;DHT22;9213;50.858;3.964;2023-05-27T05:05:17;14.50;48.80
18177;DHT22;9213;50.858;3.964;2023-05-27T05:07:44;14.50;49.00
18177;DHT22;9213;50.858;3.964;2023-05-27T05:10:11;14.50;49.00
18177;DHT22;9213;50.858;3.964;2023-05-27T05:12:38;14.60;48.80
18177;DHT22;9213;50.858;3.964;2023-05-27T05:15:07;14.70;48.80
18177;DHT22;9213;50.858;3.964;2023-05-27T05:17:34;14.80;48.50
18177;DHT22;9213;50.858;3.964;2023-05-27T05:20:01;14.80;48.30
18177;DHT22;9213;50.858;3.964;2023-05-27T05:22:30;14.90;48.20
18177;DHT22;9213;50.858;3.964;2023-05-27T05:24:57;15.00;47.90
18177;DHT22;9213;50.858;3.964;2023-05-27T05:27:24;15.10;48.00
18177;DHT22;9213;50.858;3.964;2023-05-27T05:29:51;15.20;47.80
18177;DHT22;9213;50.858;3.964;2023-05-27T05:32:18;15.30;47.70
18177;DHT22;9213;50.858;3.964;2023-05-27T05:34:45;15.40;47.30
18177;DHT22;9213;50.858;3.964;2023-05-27T05:37:12;15.40;46.90
18177;DHT22;9213;50.858;3.964;2023-05-27T05:39:41;15.40;46.70
18177;DHT22;9213;50.858;3.964;2023-05-27T05:42:09;15.50;46.90
18177;DHT22;9213;50.858;3.964;2023-05-27T05:44:35;15.50;46.90
18177;DHT22;9213;50.858;3.964;2023-05-27T05:47:03;15.50;46.90
18177;DHT22;9213;50.858;3.964;2023-05-27T05:49:29;15.60;46.90
18177;DHT22;9213;50.858;3.964;2023-05-27T05:51:56;15.60;46.70
18177;DHT22;9213;50.858;3.964;2023-05-27T05:54:23;15.70;46.60
18177;DHT22;9213;50.858;3.964;2023-05-27T05:56:52;15.70;46.60
18177;DHT22;9213;50.858;3.964;2023-05-27T05:59:18;15.80;46.50
18177;DHT22;9213;50.858;3.964;2023-05-27T06:01:45;15.80;46.50
18177;DHT22;9213;50.858;3.964;2023-05-27T06:04:12;15.90;46.30
18177;DHT22;9213;50.858;3.964;2023-05-27T06:06:39;15.90;46.20
18177;DHT22;9213;50.858;3.964;2023-05-27T06:09:07;16.00;46.10
18177;DHT22;9213;50.858;3.964;2023-05-27T06:11:34;16.00;46.00
18177;DHT22;9213;50.858;3.964;2023-05-27T06:14:02;16.10;45.70
18177;DHT22;9213;50.858;3.964;2023-05-27T06:16:29;16.10;45.70
18177;DHT22;9213;50.858;3.964;2023-05-27T06:18:56;16.20;45.80
18177;DHT22;9213;50.858;3.964;2023-05-27T06:21:23;16.30;46.00
18177;DHT22;9213;50.858;3.964;2023-05-27T06:23:50;16.40;45.90
18177;DHT22;9213;50.858;3.964;2023-05-27T06:26:17;16.50;45.30
18177;DHT22;9213;50.858;3.964;2023-05-27T06:28:43;16.70;45.20
18177;DHT22;9213;50.858;3.964;2023-05-27T06:31:12;16.80;44.60
18177;DHT22;9213;50.858;3.964;2023-05-27T06:33:41;17.00;44.60
18177;DHT22;9213;50.858;3.964;2023-05-27T06:36:08;17.20;44.20
18177;DHT22;9213;50.858;3.964;2023-05-27T06:38:34;17.50;44.50
18177;DHT22;9213;50.858;3.964;2023-05-27T06:41:01;18.20;43.90
18177;DHT22;9213;50.858;3.964;2023-05-27T06:43:28;19.30;42.30
18177;DHT22;9213;50.858;3.964;2023-05-27T06:45:55;20.80;39.50
18177;DHT22;9213;50.858;3.964;2023-05-27T06:48:24;22.20;36.60
18177;DHT22;9213;50.858;3.964;2023-05-27T06:50:51;23.40;34.60
18177;DHT22;9213;50.858;3.964;2023-05-27T06:53:17;24.60;32.60
18177;DHT22;9213;50.858;3.964;2023-05-27T06:55:44;25.60;30.10
18177;DHT22;9213;50.858;3.964;2023-05-27T06:58:11;26.20;28.50
18177;DHT22;9213;50.858;3.964;2023-05-27T07:00:38;26.40;27.50
18177;DHT22;9213;50.858;3.964;2023-05-27T07:03:05;26.40;27.40
18177;DHT22;9213;50.858;3.964;2023-05-27T07:05:33;26.60;27.30
18177;DHT22;9213;50.858;3.964;2023-05-27T07:08:00;26.90;26.40
18177;DHT22;9213;50.858;3.964;2023-05-27T07:10:27;27.40;26.20
18177;DHT22;9213;50.858;3.964;2023-05-27T07:12:54;27.80;24.80
18177;DHT22;9213;50.858;3.964;2023-05-27T07:15:21;28.00;24.30
18177;DHT22;9213;50.858;3.964;2023-05-27T07:17:48;27.80;23.80
18177;DHT22;9213;50.858;3.964;2023-05-27T07:20:15;27.30;24.50
18177;DHT22;9213;50.858;3.964;2023-05-27T07:22:43;26.60;25.30
18177;DHT22;9213;50.858;3.964;2023-05-27T07:25:10;26.00;26.50
18177;DHT22;9213;50.858;3.964;2023-05-27T07:27:37;25.60;27.30
18177;DHT22;9213;50.858;3.964;2023-05-27T07:30:05;25.60;28.10
18177;DHT22;9213;50.858;3.964;2023-05-27T07:32:32;26.00;27.50
18177;DHT22;9213;50.858;3.964;2023-05-27T07:34:59;26.10;26.80
18177;DHT22;9213;50.858;3.964;2023-05-27T07:37:26;25.80;26.40
18177;DHT22;9213;50.858;3.964;2023-05-27T07:39:57;25.40;27.00
18177;DHT22;9213;50.858;3.964;2023-05-27T07:42:23;24.90;28.10
18177;DHT22;9213;50.858;3.964;2023-05-27T07:44:50;24.40;29.10
18177;DHT22;9213;50.858;3.964;2023-05-27T07:47:17;24.30;29.30
18177;DHT22;9213;50.858;3.964;2023-05-27T07:49:44;24.30;30.20
18177;DHT22;9213;50.858;3.964;2023-05-27T07:52:11;24.80;30.00
18177;DHT22;9213;50.858;3.964;2023-05-27T07:54:38;25.60;28.90
18177;DHT22;9213;50.858;3.964;2023-05-27T07:57:06;26.50;28.10
18177;DHT22;9213;50.858;3.964;2023-05-27T07:59:33;27.60;25.80
18177;DHT22;9213;50.858;3.964;2023-05-27T08:02:00;28.40;24.90
18177;DHT22;9213;50.858;3.964;2023-05-27T08:04:27;29.10;24.10
18177;DHT22;9213;50.858;3.964;2023-05-27T08:06:54;29.50;22.80
18177;DHT22;9213;50.858;3.964;2023-05-27T08:09:21;29.80;21.80
18177;DHT22;9213;50.858;3.964;2023-05-27T08:11:48;30.00;21.90
18177;DHT22;9213;50.858;3.964;2023-05-27T08:14:16;30.10;21.80
18177;DHT22;9213;50.858;3.964;2023-05-27T08:16:43;30.40;20.90
18177;DHT22;9213;50.858;3.964;2023-05-27T08:19:10;30.50;20.80
18177;DHT22;9213;50.858;3.964;2023-05-27T08:21:37;30.50;21.00
18177;DHT22;9213;50.858;3.964;2023-05-27T08:24:04;30.60;20.30
18177;DHT22;9213;50.858;3.964;2023-05-27T08:26:31;30.60;19.90
18177;DHT22;9213;50.858;3.964;2023-05-27T08:28:58;30.50;20.30
18177;DHT22;9213;50.858;3.964;2023-05-27T08:31:26;30.50;21.20
18177;DHT22;9213;50.858;3.964;2023-05-27T08:33:53;30.90;20.40
18177;DHT22;9213;50.858;3.964;2023-05-27T08:36:20;31.30;20.10
18177;DHT22;9213;50.858;3.964;2023-05-27T08:38:47;31.60;19.50
18177;DHT22;9213;50.858;3.964;2023-05-27T08:41:14;31.80;19.30
18177;DHT22;9213;50.858;3.964;2023-05-27T08:43:41;31.90;18.80
18177;DHT22;9213;50.858;3.964;2023-05-27T08:46:09;32.00;18.90
18177;DHT22;9213;50.858;3.964;2023-05-27T08:48:37;32.10;19.10
18177;DHT22;9213;50.858;3.964;2023-05-27T08:51:05;32.20;18.70
18177;DHT22;9213;50.858;3.964;2023-05-27T08:53:32;32.30;19.20
18177;DHT22;9213;50.858;3.964;2023-05-27T08:56:00;32.50;18.60
18177;DHT22;9213;50.858;3.964;2023-05-27T08:58:28;32.70;18.90
18177;DHT22;9213;50.858;3.964;2023-05-27T09:00:56;32.90;18.40
18177;DHT22;9213;50.858;3.964;2023-05-27T09:03:23;33.10;19.00
18177;DHT22;9213;50.858;3.964;2023-05-27T09:05:54;33.40;18.20
18177;DHT22;9213;50.858;3.964;2023-05-27T09:08:21;33.60;18.20
18177;DHT22;9213;50.858;3.964;2023-05-27T09:10:48;33.80;17.90
18177;DHT22;9213;50.858;3.964;2023-05-27T09:13:25;34.00;17.40
18177;DHT22;9213;50.858;3.964;2023-05-27T09:15:58;34.20;17.50
18177;DHT22;9213;50.858;3.964;2023-05-27T09:18:26;34.20;16.80
18177;DHT22;9213;50.858;3.964;2023-05-27T09:20:55;33.90;17.40
18177;DHT22;9213;50.858;3.964;2023-05-27T09:23:22;33.70;17.30
18177;DHT22;9213;50.858;3.964;2023-05-27T09:25:49;33.50;17.90
18177;DHT22;9213;50.858;3.964;2023-05-27T09:28:20;33.50;17.90
18177;DHT22;9213;50.858;3.964;2023-05-27T09:30:51;33.70;17.90
18177;DHT22;9213;50.858;3.964;2023-05-27T09:33:26;33.90;17.60
18177;DHT22;9213;50.858;3.964;2023-05-27T09:35:55;33.90;16.90
18177;DHT22;9213;50.858;3.964;2023-05-27T09:38:22;33.80;17.10
18177;DHT22;9213;50.858;3.964;2023-05-27T09:40:49;33.70;17.90
18177;DHT22;9213;50.858;3.964;2023-05-27T09:43:16;33.70;18.00
18177;DHT22;9213;50.858;3.964;2023-05-27T09:45:44;33.70;18.10
18177;DHT22;9213;50.858;3.964;2023-05-27T09:48:12;33.80;17.50
18177;DHT22;9213;50.858;3.964;2023-05-27T09:50:40;33.80;17.50
18177;DHT22;9213;50.858;3.964;2023-05-27T09:53:09;33.70;17.40
18177;DHT22;9213;50.858;3.964;2023-05-27T09:55:37;33.60;17.70
18177;DHT22;9213;50.858;3.964;2023-05-27T09:58:05;33.60;17.90
18177;DHT22;9213;50.858;3.964;2023-05-27T10:00:33;33.50;17.60
18177;DHT22;9213;50.858;3.964;2023-05-27T10:03:00;33.40;17.90
18177;DHT22;9213;50.858;3.964;2023-05-27T10:05:28;33.40;18.40
18177;DHT22;9213;50.858;3.964;2023-05-27T10:07:56;33.40;17.90
18177;DHT22;9213;50.858;3.964;2023-05-27T10:10:24;33.50;17.90
18177;DHT22;9213;50.858;3.964;2023-05-27T10:12:54;33.50;18.10
18177;DHT22;9213;50.858;3.964;2023-05-27T10:15:23;33.50;18.00
18177;DHT22;9213;50.858;3.964;2023-05-27T10:17:53;33.50;17.80
18177;DHT22;9213;50.858;3.964;2023-05-27T10:20:26;33.40;17.80
18177;DHT22;9213;50.858;3.964;2023-05-27T10:22:53;33.30;17.70
18177;DHT22;9213;50.858;3.964;2023-05-27T10:25:20;33.20;18.00
18177;DHT22;9213;50.858;3.964;2023-05-27T10:27:48;33.00;18.30
18177;DHT22;9213;50.858;3.964;2023-05-27T10:30:16;33.00;18.90
18177;DHT22;9213;50.858;3.964;2023-05-27T10:32:48;32.90;18.00
18177;DHT22;9213;50.858;3.964;2023-05-27T10:35:16;33.00;18.70
18177;DHT22;9213;50.858;3.964;2023-05-27T10:37:43;32.90;18.20
18177;DHT22;9213;50.858;3.964;2023-05-27T10:40:10;32.80;18.50
18177;DHT22;9213;50.858;3.964;2023-05-27T10:42:38;32.70;18.50
18177;DHT22;9213;50.858;3.964;2023-05-27T10:45:08;32.70;18.20
18177;DHT22;9213;50.858;3.964;2023-05-27T10:47:37;32.70;18.90
18177;DHT22;9213;50.858;3.964;2023-05-27T10:50:10;32.60;19.30
18177;DHT22;9213;50.858;3.964;2023-05-27T10:52:39;32.70;19.10
18177;DHT22;9213;50.858;3.964;2023-05-27T10:55:07;32.60;18.70
18177;DHT22;9213;50.858;3.964;2023-05-27T10:57:34;32.70;19.30
18177;DHT22;9213;50.858;3.964;2023-05-27T11:00:03;32.70;19.40
18177;DHT22;9213;50.858;3.964;2023-05-27T11:02:36;32.90;18.70
18177;DHT22;9213;50.858;3.964;2023-05-27T11:05:13;32.90;18.50
18177;DHT22;9213;50.858;3.964;2023-05-27T11:07:41;33.00;19.20
18177;DHT22;9213;50.858;3.964;2023-05-27T11:10:09;32.90;19.20
18177;DHT22;9213;50.858;3.964;2023-05-27T11:12:36;32.90;19.10
18177;DHT22;9213;50.858;3.964;2023-05-27T11:15:03;32.90;19.20
18177;DHT22;9213;50.858;3.964;2023-05-27T11:17:30;32.90;19.40
18177;DHT22;9213;50.858;3.964;2023-05-27T11:19:59;32.90;19.30
18177;DHT22;9213;50.858;3.964;2023-05-27T11:22:26;33.00;18.60
18177;DHT22;9213;50.858;3.964;2023-05-27T11:24:57;32.90;18.30
18177;DHT22;9213;50.858;3.964;2023-05-27T11:27:25;33.00;19.80
18177;DHT22;9213;50.858;3.964;2023-05-27T11:29:58;33.00;19.90
18177;DHT22;9213;50.858;3.964;2023-05-27T11:32:25;33.00;19.10
18177;DHT22;9213;50.858;3.964;2023-05-27T11:34:52;33.00;18.60
18177;DHT22;9213;50.858;3.964;2023-05-27T11:37:23;32.90;18.40
18177;DHT22;9213;50.858;3.964;2023-05-27T11:39:50;32.90;18.50
18177;DHT22;9213;50.858;3.964;2023-05-27T11:42:21;32.90;17.40
18177;DHT22;9213;50.858;3.964;2023-05-27T11:44:50;33.00;18.70
18177;DHT22;9213;50.858;3.964;2023-05-27T11:47:17;33.00;18.50
18177;DHT22;9213;50.858;3.964;2023-05-27T11:49:45;33.10;18.30
18177;DHT22;9213;50.858;3.964;2023-05-27T11:52:12;33.10;18.80
18177;DHT22;9213;50.858;3.964;2023-05-27T11:54:41;33.30;18.80
18177;DHT22;9213;50.858;3.964;2023-05-27T11:57:08;33.30;18.70
18177;DHT22;9213;50.858;3.964;2023-05-27T11:59:36;33.40;18.00
18177;DHT22;9213;50.858;3.964;2023-05-27T12:02:04;33.40;18.80
18177;DHT22;9213;50.858;3.964;2023-05-27T12:04:31;33.40;18.70
18177;DHT22;9213;50.858;3.964;2023-05-27T12:06:58;33.30;18.50
18177;DHT22;9213;50.858;3.964;2023-05-27T12:09:26;33.40;18.10
18177;DHT22;9213;50.858;3.964;2023-05-27T12:11:54;33.40;18.00
18177;DHT22;9213;50.858;3.964;2023-05-27T12:14:21;33.40;17.20
18177;DHT22;9213;50.858;3.964;2023-05-27T12:16:48;33.30;17.10
18177;DHT22;9213;50.858;3.964;2023-05-27T12:19:15;33.30;17.40
18177;DHT22;9213;50.858;3.964;2023-05-27T12:21:42;33.30;17.40
18177;DHT22;9213;50.858;3.964;2023-05-27T12:24:10;33.40;17.10
18177;DHT22;9213;50.858;3.964;2023-05-27T12:26:37;33.40;17.00
18177;DHT22;9213;50.858;3.964;2023-05-27T12:29:07;33.50;17.90
18177;DHT22;9213;50.858;3.964;2023-05-27T12:31:34;33.50;16.80
18177;DHT22;9213;50.858;3.964;2023-05-27T12:34:01;33.60;18.00
18177;DHT22;9213;50.858;3.964;2023-05-27T12:36:28;33.70;17.30
18177;DHT22;9213;50.858;3.964;2023-05-27T12:38:55;33.70;17.10
18177;DHT22;9213;50.858;3.964;2023-05-27T12:41:22;33.80;18.00
18177;DHT22;9213;50.858;3.964;2023-05-27T12:43:49;33.80;17.40
18177;DHT22;9213;50.858;3.964;2023-05-27T12:46:17;33.70;17.50
18177;DHT22;9213;50.858;3.964;2023-05-27T12:48:44;33.70;18.00
18177;DHT22;9213;50.858;3.964;2023-05-27T12:51:11;33.80;18.20
18177;DHT22;9213;50.858;3.964;2023-05-27T12:53:38;33.80;17.70
18177;DHT22;9213;50.858;3.964;2023-05-27T12:56:06;33.80;16.80
18177;DHT22;9213;50.858;3.964;2023-05-27T12:58:33;33.90;17.40
18177;DHT22;9213;50.858;3.964;2023-05-27T13:01:00;33.90;17.00
18177;DHT22;9213;50.858;3.964;2023-05-27T13:03:28;33.90;16.20
18177;DHT22;9213;50.858;3.964;2023-05-27T13:05:55;33.90;16.80
18177;DHT22;9213;50.858;3.964;2023-05-27T13:08:23;33.90;16.90
18177;DHT22;9213;50.858;3.964;2023-05-27T13:10:50;33.90;17.20
18177;DHT22;9213;50.858;3.964;2023-05-27T13:13:17;34.00;16.50
18177;DHT22;9213;50.858;3.964;2023-05-27T13:15:44;34.00;16.30
18177;DHT22;9213;50.858;3.964;2023-05-27T13:18:12;34.10;16.20
18177;DHT22;9213;50.858;3.964;2023-05-27T13:20:40;34.00;18.00
18177;DHT22;9213;50.858;3.964;2023-05-27T13:23:07;34.10;17.60
18177;DHT22;9213;50.858;3.964;2023-05-27T13:25:34;34.10;16.00
18177;DHT22;9213;50.858;3.964;2023-05-27T13:28:01;34.20;16.40
18177;DHT22;9213;50.858;3.964;2023-05-27T13:30:28;34.10;16.00
18177;DHT22;9213;50.858;3.964;2023-05-27T13:32:55;34.00;15.80
18177;DHT22;9213;50.858;3.964;2023-05-27T13:35:22;33.90;16.00
18177;DHT22;9213;50.858;3.964;2023-05-27T13:37:50;33.90;16.70
18177;DHT22;9213;50.858;3.964;2023-05-27T13:40:18;33.90;16.90
18177;DHT22;9213;50.858;3.964;2023-05-27T13:42:45;33.80;16.20
18177;DHT22;9213;50.858;3.964;2023-05-27T13:45:12;33.80;16.50
18177;DHT22;9213;50.858;3.964;2023-05-27T13:47:39;33.80;16.60
18177;DHT22;9213;50.858;3.964;2023-05-27T13:50:09;33.70;16.60
18177;DHT22;9213;50.858;3.964;2023-05-27T13:52:36;33.60;15.70
18177;DHT22;9213;50.858;3.964;2023-05-27T13:55:05;33.40;16.90
18177;DHT22;9213;50.858;3.964;2023-05-27T13:57:32;33.30;15.90
18177;DHT22;9213;50.858;3.964;2023-05-27T13:59:59;33.30;16.20
18177;DHT22;9213;50.858;3.964;2023-05-27T14:02:26;33.20;17.10
18177;DHT22;9213;50.858;3.964;2023-05-27T14:04:53;33.10;16.90
18177;DHT22;9213;50.858;3.964;2023-05-27T14:07:20;33.00;17.40
18177;DHT22;9213;50.858;3.964;2023-05-27T14:09:48;32.90;16.80
18177;DHT22;9213;50.858;3.964;2023-05-27T14:12:17;32.70;17.90
18177;DHT22;9213;50.858;3.964;2023-05-27T14:14:44;32.70;18.00
18177;DHT22;9213;50.858;3.964;2023-05-27T14:17:11;32.60;16.20
18177;DHT22;9213;50.858;3.964;2023-05-27T14:19:37;32.50;16.10
18177;DHT22;9213;50.858;3.964;2023-05-27T14:22:04;32.40;17.60
18177;DHT22;9213;50.858;3.964;2023-05-27T14:24:31;32.30;16.90
18177;DHT22;9213;50.858;3.964;2023-05-27T14:26:58;32.20;16.60
18177;DHT22;9213;50.858;3.964;2023-05-27T14:29:28;32.20;17.10
18177;DHT22;9213;50.858;3.964;2023-05-27T14:31:55;32.10;17.40
18177;DHT22;9213;50.858;3.964;2023-05-27T14:34:22;32.10;17.60
18177;DHT22;9213;50.858;3.964;2023-05-27T14:36:49;32.00;18.00
18177;DHT22;9213;50.858;3.964;2023-05-27T14:39:16;31.90;16.70
18177;DHT22;9213;50.858;3.964;2023-05-27T14:41:43;31.80;17.30
18177;DHT22;9213;50.858;3.964;2023-05-27T14:44:10;31.80;17.00
18177;DHT22;9213;50.858;3.964;2023-05-27T14:46:38;31.70;17.20
18177;DHT22;9213;50.858;3.964;2023-05-27T14:49:05;31.70;18.30
18177;DHT22;9213;50.858;3.964;2023-05-27T14:51:32;31.60;17.20
18177;DHT22;9213;50.858;3.964;2023-05-27T14:53:59;31.50;17.60
18177;DHT22;9213;50.858;3.964;2023-05-27T14:56:26;31.40;18.00
18177;DHT22;9213;50.858;3.964;2023-05-27T14:58:52;31.40;17.50
18177;DHT22;9213;50.858;3.964;2023-05-27T15:01:19;31.30;17.50
18177;DHT22;9213;50.858;3.964;2023-05-27T15:03:48;31.20;17.90
18177;DHT22;9213;50.858;3.964;2023-05-27T15:06:15;31.10;17.80
18177;DHT22;9213;50.858;3.964;2023-05-27T15:08:42;31.10;18.10
18177;DHT22;9213;50.858;3.964;2023-05-27T15:11:08;31.10;18.60
18177;DHT22;9213;50.858;3.964;2023-05-27T15:13:36;31.10;17.20
18177;DHT22;9213;50.858;3.964;2023-05-27T15:16:04;31.10;17.50
18177;DHT22;9213;50.858;3.964;2023-05-27T15:18:31;31.00;18.00
18177;DHT22;9213;50.858;3.964;2023-05-27T15:20:59;31.00;18.10
18177;DHT22;9213;50.858;3.964;2023-05-27T15:23:26;30.90;18.20
18177;DHT22;9213;50.858;3.964;2023-05-27T15:25:53;30.90;17.70
18177;DHT22;9213;50.858;3.964;2023-05-27T15:28:20;30.80;19.20
18177;DHT22;9213;50.858;3.964;2023-05-27T15:30:47;30.70;18.70
18177;DHT22;9213;50.858;3.964;2023-05-27T15:33:14;30.70;18.30
18177;DHT22;9213;50.858;3.964;2023-05-27T15:35:41;30.70;18.30
18177;DHT22;9213;50.858;3.964;2023-05-27T15:38:09;30.60;18.20
18177;DHT22;9213;50.858;3.964;2023-05-27T15:40:40;30.50;18.40
18177;DHT22;9213;50.858;3.964;2023-05-27T15:43:07;30.40;18.40
18177;DHT22;9213;50.858;3.964;2023-05-27T15:45:35;30.30;18.60
18177;DHT22;9213;50.858;3.964;2023-05-27T15:48:04;30.20;19.00